sensor_id;sensor_type;location;lat;lon;timestamp;pressure;altitude;pressure_sealevel;temperature;humidity
63006;BME280;53704;52.532;6.426;2023-03-13T00:00:48;100190.97;;;7.36;100.00
63006;BME280;53704;52.532;6.426;2023-03-13T00:03:13;100187.00;;;7.48;100.00
63006;BME280;53704;52.532;6.426;2023-03-13T00:05:38;100186.31;;;7.46;100.00
63006;BME280;53704;52.532;6.426;2023-03-13T00:08:04;100191.47;;;7.39;100.00
63006;BME280;53704;52.532;6.426;2023-03-13T00:10:29;100177.41;;;7.37;100.00
63006;BME280;53704;52.532;6.426;2023-03-13T00:12:54;100177.59;;;7.44;100.00
63006;BME280;53704;52.532;6.426;2023-03-13T00:15:20;100158.97;;;7.34;100.00
63006;BME280;53704;52.532;6.426;2023-03-13T00:17:45;100164.38;;;7.42;100.00
63006;BME280;53704;52.532;6.426;2023-03-13T00:20:11;100149.53;;;7.48;100.00
63006;BME280;53704;52.532;6.426;2023-03-13T00:22:37;100149.44;;;7.40;100.00
63006;BME280;53704;52.532;6.426;2023-03-13T00:25:02;100144.09;;;7.40;100.00
63006;BME280;53704;52.532;6.426;2023-03-13T00:27:32;100136.06;;;7.40;100.00
63006;BME280;53704;52.532;6.426;2023-03-13T00:29:58;100137.22;;;7.29;100.00
63006;BME280;53704;52.532;6.426;2023-03-13T00:32:23;100136.03;;;7.32;100.00
63006;BME280;53704;52.532;6.426;2023-03-13T00:34:49;100116.31;;;7.33;100.00
63006;BME280;53704;52.532;6.426;2023-03-13T00:37:14;100109.06;;;7.25;100.00
63006;BME280;53704;52.532;6.426;2023-03-13T00:39:39;100105.91;;;7.30;100.00
63006;BME280;53704;52.532;6.426;2023-03-13T00:42:05;100098.22;;;7.35;100.00
63006;BME280;53704;52.532;6.426;2023-03-13T00:44:30;100091.94;;;7.18;100.00
63006;BME280;53704;52.532;6.426;2023-03-13T00:46:56;100083.75;;;7.19;100.00
63006;BME280;53704;52.532;6.426;2023-03-13T00:49:21;100076.44;;;7.21;100.00
63006;BME280;53704;52.532;6.426;2023-03-13T00:51:47;100075.78;;;7.28;100.00
63006;BME280;53704;52.532;6.426;2023-03-13T00:54:12;100068.41;;;7.21;100.00
63006;BME280;53704;52.532;6.426;2023-03-13T00:56:38;100060.38;;;7.21;100.00
63006;BME280;53704;52.532;6.426;2023-03-13T00:59:03;100051.16;;;7.24;100.00
63006;BME280;53704;52.532;6.426;2023-03-13T01:01:33;100033.91;;;7.18;100.00
63006;BME280;53704;52.532;6.426;2023-03-13T01:04:01;100034.75;;;7.19;100.00
63006;BME280;53704;52.532;6.426;2023-03-13T01:06:29;100024.19;;;7.17;100.00
63006;BME280;53704;52.532;6.426;2023-03-13T01:08:56;100015.50;;;7.15;100.00
63006;BME280;53704;52.532;6.426;2023-03-13T01:11:26;100012.81;;;7.15;100.00
63006;BME280;53704;52.532;6.426;2023-03-13T01:13:54;100003.97;;;7.15;100.00
63006;BME280;53704;52.532;6.426;2023-03-13T01:16:21;100011.13;;;7.14;100.00
63006;BME280;53704;52.532;6.426;2023-03-13T01:18:49;99999.41;;;7.07;100.00
63006;BME280;53704;52.532;6.426;2023-03-13T01:21:16;99990.38;;;7.16;100.00
63006;BME280;53704;52.532;6.426;2023-03-13T01:23:43;99975.69;;;7.20;100.00
63006;BME280;53704;52.532;6.426;2023-03-13T01:26:09;99979.34;;;7.11;100.00
63006;BME280;53704;52.532;6.426;2023-03-13T01:28:35;99962.28;;;7.12;100.00
63006;BME280;53704;52.532;6.426;2023-03-13T01:31:19;99954.75;;;7.16;100.00
63006;BME280;53704;52.532;6.426;2023-03-13T01:33:46;99943.56;;;7.12;100.00
63006;BME280;53704;52.532;6.426;2023-03-13T01:36:12;99942.41;;;7.15;100.00
63006;BME280;53704;52.532;6.426;2023-03-13T01:38:39;99932.84;;;7.12;100.00
63006;BME280;53704;52.532;6.426;2023-03-13T01:41:06;99921.81;;;7.15;100.00
63006;BME280;53704;52.532;6.426;2023-03-13T01:43:34;99927.34;;;7.22;100.00
63006;BME280;53704;52.532;6.426;2023-03-13T01:54:05;99908.28;;;7.17;100.00
63006;BME280;53704;52.532;6.426;2023-03-13T01:59:08;99889.38;;;7.18;100.00
63006;BME280;53704;52.532;6.426;2023-03-13T02:01:35;99879.00;;;7.23;100.00
63006;BME280;53704;52.532;6.426;2023-03-13T02:04:01;99862.09;;;7.23;100.00
63006;BME280;53704;52.532;6.426;2023-03-13T02:06:29;99850.38;;;7.24;100.00
63006;BME280;53704;52.532;6.426;2023-03-13T02:09:02;99843.88;;;7.27;100.00
63006;BME280;53704;52.532;6.426;2023-03-13T02:12:12;99828.78;;;7.25;100.00
63006;BME280;53704;52.532;6.426;2023-03-13T02:14:19;99833.97;;;7.27;100.00
63006;BME280;53704;52.532;6.426;2023-03-13T02:16:46;99822.44;;;7.27;100.00
63006;BME280;53704;52.532;6.426;2023-03-13T02:19:27;99804.03;;;7.23;100.00
63006;BME280;53704;52.532;6.426;2023-03-13T02:22:06;99798.00;;;7.30;100.00
63006;BME280;53704;52.532;6.426;2023-03-13T02:26:59;99790.31;;;7.35;100.00
63006;BME280;53704;52.532;6.426;2023-03-13T02:29:25;99783.78;;;7.37;100.00
63006;BME280;53704;52.532;6.426;2023-03-13T02:31:50;99777.06;;;7.41;100.00
63006;BME280;53704;52.532;6.426;2023-03-13T02:34:20;99769.03;;;7.41;100.00
63006;BME280;53704;52.532;6.426;2023-03-13T02:36:47;99758.34;;;7.50;100.00
63006;BME280;53704;52.532;6.426;2023-03-13T02:39:16;99753.31;;;7.47;100.00
63006;BME280;53704;52.532;6.426;2023-03-13T02:41:43;99744.25;;;7.48;100.00
63006;BME280;53704;52.532;6.426;2023-03-13T02:44:09;99738.09;;;7.47;100.00
63006;BME280;53704;52.532;6.426;2023-03-13T02:46:49;99726.88;;;7.52;100.00
63006;BME280;53704;52.532;6.426;2023-03-13T02:49:25;99726.34;;;7.56;100.00
63006;BME280;53704;52.532;6.426;2023-03-13T02:51:52;99719.31;;;7.55;100.00
63006;BME280;53704;52.532;6.426;2023-03-13T02:54:22;99709.44;;;7.64;100.00
63006;BME280;53704;52.532;6.426;2023-03-13T02:56:53;99714.78;;;7.64;100.00
63006;BME280;53704;52.532;6.426;2023-03-13T02:59:20;99699.72;;;7.63;100.00
63006;BME280;53704;52.532;6.426;2023-03-13T03:01:45;99707.56;;;7.65;100.00
63006;BME280;53704;52.532;6.426;2023-03-13T03:04:11;99687.31;;;7.70;100.00
63006;BME280;53704;52.532;6.426;2023-03-13T03:06:36;99697.84;;;7.72;100.00
63006;BME280;53704;52.532;6.426;2023-03-13T03:09:02;99689.63;;;7.73;100.00
63006;BME280;53704;52.532;6.426;2023-03-13T03:11:28;99682.72;;;7.79;100.00
63006;BME280;53704;52.532;6.426;2023-03-13T03:13:54;99680.19;;;7.86;100.00
63006;BME280;53704;52.532;6.426;2023-03-13T03:16:19;99675.88;;;7.85;100.00
63006;BME280;53704;52.532;6.426;2023-03-13T03:18:45;99665.97;;;7.85;100.00
63006;BME280;53704;52.532;6.426;2023-03-13T03:21:11;99658.94;;;7.84;100.00
63006;BME280;53704;52.532;6.426;2023-03-13T03:23:37;99665.28;;;7.91;100.00
63006;BME280;53704;52.532;6.426;2023-03-13T03:26:04;99660.03;;;7.98;100.00
63006;BME280;53704;52.532;6.426;2023-03-13T03:28:30;99659.22;;;7.97;100.00
63006;BME280;53704;52.532;6.426;2023-03-13T03:30:55;99646.13;;;8.03;100.00
63006;BME280;53704;52.532;6.426;2023-03-13T03:33:22;99653.63;;;8.07;100.00
63006;BME280;53704;52.532;6.426;2023-03-13T03:35:48;99650.59;;;8.10;100.00
63006;BME280;53704;52.532;6.426;2023-03-13T03:38:14;99662.81;;;8.13;100.00
63006;BME280;53704;52.532;6.426;2023-03-13T03:40:39;99649.41;;;8.13;100.00
63006;BME280;53704;52.532;6.426;2023-03-13T03:43:05;99652.09;;;8.13;100.00
63006;BME280;53704;52.532;6.426;2023-03-13T03:45:30;99646.31;;;8.24;100.00
63006;BME280;53704;52.532;6.426;2023-03-13T03:47:55;99640.16;;;8.15;100.00
63006;BME280;53704;52.532;6.426;2023-03-13T03:50:24;99644.66;;;8.23;100.00
63006;BME280;53704;52.532;6.426;2023-03-13T03:52:50;99634.28;;;8.20;100.00
63006;BME280;53704;52.532;6.426;2023-03-13T03:55:16;99640.28;;;8.22;100.00
63006;BME280;53704;52.532;6.426;2023-03-13T03:57:41;99633.75;;;8.25;100.00
63006;BME280;53704;52.532;6.426;2023-03-13T04:00:08;99634.56;;;8.25;100.00
63006;BME280;53704;52.532;6.426;2023-03-13T04:02:36;99626.84;;;8.30;100.00
63006;BME280;53704;52.532;6.426;2023-03-13T04:05:02;99621.47;;;8.30;100.00
63006;BME280;53704;52.532;6.426;2023-03-13T04:07:28;99630.66;;;8.36;100.00
63006;BME280;53704;52.532;6.426;2023-03-13T04:09:53;99629.00;;;8.35;100.00
63006;BME280;53704;52.532;6.426;2023-03-13T04:12:19;99621.78;;;8.36;100.00
63006;BME280;53704;52.532;6.426;2023-03-13T04:14:44;99630.13;;;8.41;100.00
63006;BME280;53704;52.532;6.426;2023-03-13T04:17:10;99622.56;;;8.44;100.00
63006;BME280;53704;52.532;6.426;2023-03-13T04:19:35;99622.38;;;8.46;100.00
63006;BME280;53704;52.532;6.426;2023-03-13T04:22:03;99622.38;;;8.46;100.00
63006;BME280;53704;52.532;6.426;2023-03-13T04:24:29;99624.84;;;8.56;100.00
63006;BME280;53704;52.532;6.426;2023-03-13T04:26:54;99623.09;;;8.63;100.00
63006;BME280;53704;52.532;6.426;2023-03-13T04:29:20;99617.44;;;8.58;100.00
63006;BME280;53704;52.532;6.426;2023-03-13T04:31:45;99607.47;;;8.66;100.00
63006;BME280;53704;52.532;6.426;2023-03-13T04:34:10;99597.41;;;8.68;100.00
63006;BME280;53704;52.532;6.426;2023-03-13T04:36:36;99593.31;;;8.73;100.00
63006;BME280;53704;52.532;6.426;2023-03-13T04:39:02;99582.78;;;8.71;100.00
63006;BME280;53704;52.532;6.426;2023-03-13T04:41:27;99598.31;;;8.76;100.00
63006;BME280;53704;52.532;6.426;2023-03-13T04:43:53;99581.88;;;8.79;100.00
63006;BME280;53704;52.532;6.426;2023-03-13T04:46:18;99579.50;;;8.84;100.00
63006;BME280;53704;52.532;6.426;2023-03-13T04:48:43;99578.09;;;8.88;100.00
63006;BME280;53704;52.532;6.426;2023-03-13T04:51:09;99563.84;;;8.87;100.00
63006;BME280;53704;52.532;6.426;2023-03-13T04:53:34;99563.38;;;8.99;100.00
63006;BME280;53704;52.532;6.426;2023-03-13T04:56:00;99559.88;;;8.98;100.00
63006;BME280;53704;52.532;6.426;2023-03-13T04:58:25;99565.69;;;9.02;100.00
63006;BME280;53704;52.532;6.426;2023-03-13T05:00:52;99554.41;;;9.07;100.00
63006;BME280;53704;52.532;6.426;2023-03-13T05:03:17;99554.41;;;9.07;100.00
63006;BME280;53704;52.532;6.426;2023-03-13T05:05:43;99546.44;;;9.13;100.00
63006;BME280;53704;52.532;6.426;2023-03-13T05:08:08;99548.94;;;9.15;100.00
63006;BME280;53704;52.532;6.426;2023-03-13T05:10:35;99548.13;;;9.14;100.00
63006;BME280;53704;52.532;6.426;2023-03-13T05:13:01;99537.63;;;9.19;100.00
63006;BME280;53704;52.532;6.426;2023-03-13T05:15:26;99545.97;;;9.24;100.00
63006;BME280;53704;52.532;6.426;2023-03-13T05:17:52;99525.59;;;9.30;100.00
63006;BME280;53704;52.532;6.426;2023-03-13T05:20:17;99539.28;;;9.35;100.00
63006;BME280;53704;52.532;6.426;2023-03-13T05:22:43;99530.41;;;9.35;100.00
63006;BME280;53704;52.532;6.426;2023-03-13T05:25:08;99528.06;;;9.47;100.00
63006;BME280;53704;52.532;6.426;2023-03-13T05:27:34;99516.22;;;9.41;100.00
63006;BME280;53704;52.532;6.426;2023-03-13T05:29:59;99528.44;;;9.44;100.00
63006;BME280;53704;52.532;6.426;2023-03-13T05:32:25;99521.03;;;9.46;100.00
63006;BME280;53704;52.532;6.426;2023-03-13T05:34:50;99516.94;;;9.50;100.00
63006;BME280;53704;52.532;6.426;2023-03-13T05:37:15;99508.69;;;9.51;100.00
63006;BME280;53704;52.532;6.426;2023-03-13T05:39:41;99512.19;;;9.52;100.00
63006;BME280;53704;52.532;6.426;2023-03-13T05:42:07;99519.69;;;9.56;100.00
63006;BME280;53704;52.532;6.426;2023-03-13T05:44:32;99516.00;;;9.57;100.00
63006;BME280;53704;52.532;6.426;2023-03-13T05:46:57;99513.31;;;9.57;100.00
63006;BME280;53704;52.532;6.426;2023-03-13T05:49:23;99518.19;;;9.69;100.00
63006;BME280;53704;52.532;6.426;2023-03-13T05:51:49;99517.34;;;9.68;100.00
63006;BME280;53704;52.532;6.426;2023-03-13T05:54:14;99515.56;;;9.75;100.00
63006;BME280;53704;52.532;6.426;2023-03-13T05:56:40;99510.47;;;9.81;100.00
63006;BME280;53704;52.532;6.426;2023-03-13T05:59:05;99520.34;;;9.80;100.00
63006;BME280;53704;52.532;6.426;2023-03-13T06:01:31;99515.06;;;9.87;100.00
63006;BME280;53704;52.532;6.426;2023-03-13T06:03:56;99501.88;;;9.92;100.00
63006;BME280;53704;52.532;6.426;2023-03-13T06:06:22;99517.56;;;9.88;100.00
63006;BME280;53704;52.532;6.426;2023-03-13T06:08:47;99507.66;;;9.89;100.00
63006;BME280;53704;52.532;6.426;2023-03-13T06:11:12;99504.75;;;9.90;100.00
63006;BME280;53704;52.532;6.426;2023-03-13T06:13:38;99510.19;;;9.97;100.00
63006;BME280;53704;52.532;6.426;2023-03-13T06:16:04;99519.28;;;9.96;100.00
63006;BME280;53704;52.532;6.426;2023-03-13T06:18:29;99520.94;;;9.97;100.00
63006;BME280;53704;52.532;6.426;2023-03-13T06:20:59;99526.66;;;10.09;100.00
63006;BME280;53704;52.532;6.426;2023-03-13T06:23:26;99514.25;;;10.08;100.00
63006;BME280;53704;52.532;6.426;2023-03-13T06:25:52;99493.94;;;10.05;100.00
63006;BME280;53704;52.532;6.426;2023-03-13T06:28:18;99487.34;;;10.08;100.00
63006;BME280;53704;52.532;6.426;2023-03-13T06:30:43;99486.53;;;10.07;100.00
63006;BME280;53704;52.532;6.426;2023-03-13T06:33:09;99489.22;;;10.07;100.00
63006;BME280;53704;52.532;6.426;2023-03-13T06:35:35;99488.41;;;10.13;100.00
63006;BME280;53704;52.532;6.426;2023-03-13T06:38:00;99478.69;;;10.12;100.00
63006;BME280;53704;52.532;6.426;2023-03-13T06:40:26;99466.66;;;10.08;100.00
63006;BME280;53704;52.532;6.426;2023-03-13T06:42:51;99466.91;;;10.13;100.00
63006;BME280;53704;52.532;6.426;2023-03-13T06:45:18;99460.34;;;10.23;100.00
63006;BME280;53704;52.532;6.426;2023-03-13T06:47:43;99461.22;;;10.23;100.00
63006;BME280;53704;52.532;6.426;2023-03-13T06:50:09;99446.31;;;10.27;100.00
63006;BME280;53704;52.532;6.426;2023-03-13T06:52:35;99459.19;;;10.32;100.00
63006;BME280;53704;52.532;6.426;2023-03-13T06:55:03;99445.50;;;10.27;100.00
63006;BME280;53704;52.532;6.426;2023-03-13T06:57:28;99458.56;;;10.30;100.00
63006;BME280;53704;52.532;6.426;2023-03-13T06:59:53;99453.00;;;10.31;100.00
63006;BME280;53704;52.532;6.426;2023-03-13T07:02:19;99447.69;;;10.38;100.00
63006;BME280;53704;52.532;6.426;2023-03-13T07:04:44;99448.88;;;10.36;100.00
63006;BME280;53704;52.532;6.426;2023-03-13T07:07:11;99447.69;;;10.38;100.00
63006;BME280;53704;52.532;6.426;2023-03-13T07:09:36;99439.44;;;10.46;100.00
63006;BME280;53704;52.532;6.426;2023-03-13T07:12:02;99444.44;;;10.49;100.00
63006;BME280;53704;52.532;6.426;2023-03-13T07:14:28;99442.41;;;10.52;100.00
63006;BME280;53704;52.532;6.426;2023-03-13T07:16:54;99451.91;;;10.54;100.00
63006;BME280;53704;52.532;6.426;2023-03-13T07:19:19;99445.72;;;10.54;100.00
63006;BME280;53704;52.532;6.426;2023-03-13T07:21:45;99445.28;;;10.50;100.00
63006;BME280;53704;52.532;6.426;2023-03-13T07:24:11;99452.34;;;10.58;100.00
63006;BME280;53704;52.532;6.426;2023-03-13T07:26:36;99443.66;;;10.56;100.00
63006;BME280;53704;52.532;6.426;2023-03-13T07:29:02;99452.13;;;10.53;100.00
63006;BME280;53704;52.532;6.426;2023-03-13T07:31:28;99454.41;;;10.56;100.00
63006;BME280;53704;52.532;6.426;2023-03-13T07:33:57;99455.50;;;10.61;100.00
63006;BME280;53704;52.532;6.426;2023-03-13T07:36:23;99453.22;;;10.65;100.00
63006;BME280;53704;52.532;6.426;2023-03-13T07:38:49;99446.38;;;10.62;100.00
63006;BME280;53704;52.532;6.426;2023-03-13T07:41:15;99459.91;;;10.69;100.00
63006;BME280;53704;52.532;6.426;2023-03-13T07:43:41;99457.41;;;10.67;100.00
63006;BME280;53704;52.532;6.426;2023-03-13T07:46:08;99455.53;;;10.68;100.00
63006;BME280;53704;52.532;6.426;2023-03-13T07:48:37;99454.94;;;10.73;100.00
63006;BME280;53704;52.532;6.426;2023-03-13T07:51:09;99461.13;;;10.73;100.00
63006;BME280;53704;52.532;6.426;2023-03-13T07:53:35;99462.19;;;10.72;100.00
63006;BME280;53704;52.532;6.426;2023-03-13T07:56:09;99466.13;;;10.76;100.00
63006;BME280;53704;52.532;6.426;2023-03-13T07:58:37;99469.66;;;10.77;100.00
63006;BME280;53704;52.532;6.426;2023-03-13T08:01:10;99478.19;;;10.80;100.00
63006;BME280;53704;52.532;6.426;2023-03-13T08:03:36;99473.19;;;10.77;100.00
63006;BME280;53704;52.532;6.426;2023-03-13T08:06:07;99482.91;;;10.78;100.00
63006;BME280;53704;52.532;6.426;2023-03-13T08:08:33;99470.28;;;10.72;100.00
63006;BME280;53704;52.532;6.426;2023-03-13T08:11:03;99476.47;;;10.73;100.00
63006;BME280;53704;52.532;6.426;2023-03-13T08:13:29;99486.44;;;10.79;100.00
63006;BME280;53704;52.532;6.426;2023-03-13T08:16:16;99472.78;;;10.80;100.00
63006;BME280;53704;52.532;6.426;2023-03-13T08:18:48;99483.56;;;10.80;100.00
63006;BME280;53704;52.532;6.426;2023-03-13T08:21:16;99488.94;;;10.80;100.00
63006;BME280;53704;52.532;6.426;2023-03-13T08:23:43;99476.72;;;10.84;100.00
63006;BME280;53704;52.532;6.426;2023-03-13T08:26:19;99496.03;;;10.88;100.00
63006;BME280;53704;52.532;6.426;2023-03-13T08:28:46;99488.09;;;10.80;100.00
63006;BME280;53704;52.532;6.426;2023-03-13T08:31:17;99497.44;;;10.84;100.00
63006;BME280;53704;52.532;6.426;2023-03-13T08:33:44;99485.59;;;10.78;100.00
63006;BME280;53704;52.532;6.426;2023-03-13T08:36:21;99492.06;;;10.84;100.00
63006;BME280;53704;52.532;6.426;2023-03-13T08:38:48;99500.97;;;10.84;100.00
63006;BME280;53704;52.532;6.426;2023-03-13T08:41:16;99489.38;;;10.84;100.00
63006;BME280;53704;52.532;6.426;2023-03-13T08:43:42;99492.47;;;10.81;100.00
63006;BME280;53704;52.532;6.426;2023-03-13T08:46:08;99485.25;;;10.88;100.00
63006;BME280;53704;52.532;6.426;2023-03-13T08:48:33;99484.50;;;11.01;100.00
63006;BME280;53704;52.532;6.426;2023-03-13T08:51:04;99465.84;;;10.99;100.00
63006;BME280;53704;52.532;6.426;2023-03-13T08:53:31;99456.09;;;10.98;100.00
63006;BME280;53704;52.532;6.426;2023-03-13T08:55:57;99455.53;;;11.10;100.00
63006;BME280;53704;52.532;6.426;2023-03-13T08:58:23;99453.91;;;11.15;100.00
63006;BME280;53704;52.532;6.426;2023-03-13T09:00:49;99446.50;;;11.31;100.00
63006;BME280;53704;52.532;6.426;2023-03-13T09:03:14;99444.44;;;11.46;100.00
63006;BME280;53704;52.532;6.426;2023-03-13T09:05:41;99467.06;;;11.45;100.00
63006;BME280;53704;52.532;6.426;2023-03-13T09:08:07;99456.03;;;11.40;100.00
63006;BME280;53704;52.532;6.426;2023-03-13T09:10:32;99448.16;;;11.38;100.00
63006;BME280;53704;52.532;6.426;2023-03-13T09:12:58;99450.69;;;11.47;100.00
63006;BME280;53704;52.532;6.426;2023-03-13T09:15:23;99456.28;;;11.52;100.00
63006;BME280;53704;52.532;6.426;2023-03-13T09:17:49;99460.25;;;11.56;100.00
63006;BME280;53704;52.532;6.426;2023-03-13T09:20:14;99454.44;;;11.59;100.00
63006;BME280;53704;52.532;6.426;2023-03-13T09:22:40;99460.00;;;11.51;100.00
63006;BME280;53704;52.532;6.426;2023-03-13T09:25:06;99431.63;;;11.48;100.00
63006;BME280;53704;52.532;6.426;2023-03-13T09:27:31;99440.50;;;11.42;100.00
63006;BME280;53704;52.532;6.426;2023-03-13T09:29:57;99456.88;;;11.34;100.00
63006;BME280;53704;52.532;6.426;2023-03-13T09:32:23;99449.00;;;11.39;100.00
63006;BME280;53704;52.532;6.426;2023-03-13T09:34:49;99439.66;;;11.41;100.00
63006;BME280;53704;52.532;6.426;2023-03-13T09:37:14;99443.84;;;11.51;100.00
63006;BME280;53704;52.532;6.426;2023-03-13T09:39:40;99427.91;;;11.63;100.00
63006;BME280;53704;52.532;6.426;2023-03-13T09:42:15;99418.34;;;11.60;100.00
63006;BME280;53704;52.532;6.426;2023-03-13T09:44:47;99423.75;;;11.67;100.00
63006;BME280;53704;52.532;6.426;2023-03-13T09:47:25;99412.56;;;11.63;100.00
63006;BME280;53704;52.532;6.426;2023-03-13T09:50:14;99404.88;;;11.67;100.00
63006;BME280;53704;52.532;6.426;2023-03-13T09:52:41;99410.47;;;11.65;100.00
63006;BME280;53704;52.532;6.426;2023-03-13T09:55:19;99429.59;;;11.70;100.00
63006;BME280;53704;52.532;6.426;2023-03-13T09:57:52;99408.84;;;11.77;100.00
63006;BME280;53704;52.532;6.426;2023-03-13T10:00:26;99414.25;;;12.11;100.00
63006;BME280;53704;52.532;6.426;2023-03-13T10:03:06;99388.31;;;12.37;100.00
63006;BME280;53704;52.532;6.426;2023-03-13T10:05:43;99377.91;;;12.27;100.00
63006;BME280;53704;52.532;6.426;2023-03-13T10:08:15;99389.34;;;12.22;100.00
63006;BME280;53704;52.532;6.426;2023-03-13T10:11:18;99383.75;;;12.30;100.00
63006;BME280;53704;52.532;6.426;2023-03-13T10:16:23;99376.69;;;12.29;100.00
63006;BME280;53704;52.532;6.426;2023-03-13T10:18:54;99369.19;;;12.31;100.00
63006;BME280;53704;52.532;6.426;2023-03-13T10:21:22;99361.94;;;12.39;100.00
63006;BME280;53704;52.532;6.426;2023-03-13T10:24:05;99367.31;;;12.39;100.00
63006;BME280;53704;52.532;6.426;2023-03-13T10:26:37;99367.31;;;12.45;100.00
63006;BME280;53704;52.532;6.426;2023-03-13T10:29:27;99361.06;;;12.52;100.00
63006;BME280;53704;52.532;6.426;2023-03-13T10:31:57;99362.28;;;12.62;100.00
63006;BME280;53704;52.532;6.426;2023-03-13T10:34:24;99361.81;;;12.72;100.00
63006;BME280;53704;52.532;6.426;2023-03-13T10:36:55;99359.28;;;12.77;100.00
63006;BME280;53704;52.532;6.426;2023-03-13T10:39:23;99330.00;;;12.81;100.00
63006;BME280;53704;52.532;6.426;2023-03-13T10:41:49;99343.66;;;12.93;100.00
63006;BME280;53704;52.532;6.426;2023-03-13T10:44:21;99333.88;;;12.98;100.00
63006;BME280;53704;52.532;6.426;2023-03-13T10:46:48;99335.47;;;13.06;100.00
63006;BME280;53704;52.532;6.426;2023-03-13T10:51:45;99333.78;;;13.12;100.00
63006;BME280;53704;52.532;6.426;2023-03-13T10:54:28;99344.53;;;13.18;100.00
63006;BME280;53704;52.532;6.426;2023-03-13T10:57:36;99345.66;;;13.74;100.00
63006;BME280;53704;52.532;6.426;2023-03-13T11:02:53;99312.63;;;13.66;100.00
63006;BME280;53704;52.532;6.426;2023-03-13T11:07:51;99337.19;;;13.64;100.00
63006;BME280;53704;52.532;6.426;2023-03-13T11:10:19;99309.75;;;13.61;100.00
63006;BME280;53704;52.532;6.426;2023-03-13T11:12:52;99307.00;;;13.67;100.00
63006;BME280;53704;52.532;6.426;2023-03-13T11:20:47;99302.69;;;13.85;100.00
63006;BME280;53704;52.532;6.426;2023-03-13T11:26:10;99299.09;;;13.91;100.00
63006;BME280;53704;52.532;6.426;2023-03-13T11:29:02;99300.38;;;13.88;100.00
63006;BME280;53704;52.532;6.426;2023-03-13T11:31:33;99284.97;;;13.89;100.00
63006;BME280;53704;52.532;6.426;2023-03-13T11:34:27;99284.06;;;14.14;100.00
63006;BME280;53704;52.532;6.426;2023-03-13T11:37:10;99283.47;;;14.30;100.00
63006;BME280;53704;52.532;6.426;2023-03-13T11:42:05;99287.78;;;14.38;100.00
63006;BME280;53704;52.532;6.426;2023-03-13T11:53:29;99275.03;;;14.57;100.00
63006;BME280;53704;52.532;6.426;2023-03-13T11:58:39;99266.56;;;15.26;100.00
63006;BME280;53704;52.532;6.426;2023-03-13T12:01:18;99244.00;;;15.01;100.00
63006;BME280;53704;52.532;6.426;2023-03-13T12:03:57;99264.09;;;15.24;100.00
63006;BME280;53704;52.532;6.426;2023-03-13T12:08:54;99235.81;;;15.32;100.00
63006;BME280;53704;52.532;6.426;2023-03-13T12:11:25;99259.81;;;15.05;100.00
63006;BME280;53704;52.532;6.426;2023-03-13T12:17:08;99231.22;;;15.20;100.00
63006;BME280;53704;52.532;6.426;2023-03-13T12:19:43;99234.72;;;15.09;100.00
63006;BME280;53704;52.532;6.426;2023-03-13T12:25:13;99223.44;;;15.12;100.00
63006;BME280;53704;52.532;6.426;2023-03-13T12:27:46;99222.34;;;15.01;100.00
63006;BME280;53704;52.532;6.426;2023-03-13T12:30:41;99211.91;;;15.52;100.00
63006;BME280;53704;52.532;6.426;2023-03-13T12:36:03;99204.69;;;15.23;100.00
63006;BME280;53704;52.532;6.426;2023-03-13T12:38:35;99204.84;;;15.51;100.00
63006;BME280;53704;52.532;6.426;2023-03-13T12:43:31;99208.13;;;15.65;100.00
63006;BME280;53704;52.532;6.426;2023-03-13T12:59:29;99175.56;;;16.30;100.00
63006;BME280;53704;52.532;6.426;2023-03-13T13:01:57;99195.50;;;15.95;100.00
63006;BME280;53704;52.532;6.426;2023-03-13T13:04:29;99183.03;;;15.82;100.00
63006;BME280;53704;52.532;6.426;2023-03-13T13:07:06;99177.66;;;16.10;100.00
63006;BME280;53704;52.532;6.426;2023-03-13T13:09:37;99176.13;;;16.03;98.97
63006;BME280;53704;52.532;6.426;2023-03-13T13:12:24;99160.09;;;16.01;100.00
63006;BME280;53704;52.532;6.426;2023-03-13T13:18:01;99186.50;;;16.18;94.56
63006;BME280;53704;52.532;6.426;2023-03-13T13:20:28;99152.44;;;16.27;92.01
63006;BME280;53704;52.532;6.426;2023-03-13T13:22:55;99172.28;;;16.56;89.18
63006;BME280;53704;52.532;6.426;2023-03-13T13:25:39;99162.81;;;16.59;89.22
63006;BME280;53704;52.532;6.426;2023-03-13T13:30:39;99154.69;;;16.59;86.04
63006;BME280;53704;52.532;6.426;2023-03-13T13:35:43;99142.63;;;17.00;85.58
63006;BME280;53704;52.532;6.426;2023-03-13T13:38:20;99137.19;;;17.17;85.19
63006;BME280;53704;52.532;6.426;2023-03-13T13:41:31;99117.00;;;16.96;84.54
63006;BME280;53704;52.532;6.426;2023-03-13T13:44:20;99122.88;;;16.59;85.42
63006;BME280;53704;52.532;6.426;2023-03-13T13:46:46;99144.78;;;16.53;86.11
63006;BME280;53704;52.532;6.426;2023-03-13T13:49:19;99127.19;;;16.72;85.25
63006;BME280;53704;52.532;6.426;2023-03-13T13:57:18;99142.69;;;16.14;84.45
63006;BME280;53704;52.532;6.426;2023-03-13T13:59:58;99137.94;;;16.50;85.58
63006;BME280;53704;52.532;6.426;2023-03-13T14:02:35;99134.00;;;16.58;86.55
63006;BME280;53704;52.532;6.426;2023-03-13T14:05:17;99140.28;;;16.30;87.24
63006;BME280;53704;52.532;6.426;2023-03-13T14:07:49;99130.91;;;16.37;88.20
63006;BME280;53704;52.532;6.426;2023-03-13T14:10:25;99130.22;;;16.30;87.91
63006;BME280;53704;52.532;6.426;2023-03-13T14:12:55;99133.91;;;16.53;88.47
63006;BME280;53704;52.532;6.426;2023-03-13T14:15:30;99121.72;;;16.55;88.71
63006;BME280;53704;52.532;6.426;2023-03-13T14:18:00;99140.59;;;16.33;86.68
63006;BME280;53704;52.532;6.426;2023-03-13T14:20:35;99113.81;;;16.37;88.10
63006;BME280;53704;52.532;6.426;2023-03-13T14:23:07;99122.03;;;16.42;88.36
63006;BME280;53704;52.532;6.426;2023-03-13T14:26:07;99129.31;;;16.53;88.30
63006;BME280;53704;52.532;6.426;2023-03-13T14:28:33;99108.88;;;16.51;88.13
63006;BME280;53704;52.532;6.426;2023-03-13T14:30:58;99128.31;;;16.59;88.24